Flight Track Log - Related Links

Times and Time Zones

All times are in EDT time to prevent confusion due to time zone crossing. See the FDX1347 flight status page for this flight to view local times or setup timezone preferences in your user account.

Time Position Orientation Groundspeed Altitude Reporting Facility
EDT Latitude Longitude Course Direction KTS MPH feet Rate Location/Type
Wed 09:48:21 PM 42.7319 -73.8081 179° South 146 168 1,700  Level Boston Center
Wed 09:48:39 PM 42.7194 -73.8078 179° South 144 166 2,500 1,947 Climbing Boston Center
Wed 09:50:15 PM 42.6786 -73.9086 241° Southwest 221 254 5,400 2,361 Climbing Boston Center
Wed 09:52:15 PM 42.6256 -74.1133 251° West 274 315 11,000 2,467 Climbing Boston Center
Wed 09:53:15 PM 42.6358 -74.2575 276° West 355 409 12,800 2,000 Climbing Boston Center
Wed 09:54:15 PM 42.6461 -74.4075 275° West 397 457 15,000 2,500 Climbing Boston Center
Wed 09:55:15 PM 42.6536 -74.5658 274° West 422 486 17,800 2,256 Climbing Boston Center
Wed 10:00:22 PM 42.3820 -75.3180 274° West 472 543 28,800 2,127 Climbing FlightAware ADS-B
Wed 10:01:02 PM 42.3360 -75.4070 235° Southwest 471 542 30,100 2,118 Climbing FlightAware ADS-B
Wed 10:01:47 PM 42.2730 -75.5270 235° Southwest 469 540 31,800 1,500 Climbing FlightAware ADS-B
Wed 10:02:42 PM 42.2150 -75.6360 234° Southwest 473 544 32,600 1,895 Climbing FlightAware ADS-B
Wed 10:03:22 PM 42.1670 -75.7280 235° Southwest 455 524 34,800 1,832 Climbing FlightAware ADS-B
Wed 10:04:17 PM 42.1000 -75.8520 234° Southwest 457 526 35,500 1,440 Climbing FlightAware ADS-B
Wed 10:05:02 PM 42.0420 -75.9600 234° Southwest 457 526 37,200 1,620 Climbing FlightAware ADS-B
Wed 10:05:57 PM 41.9770 -76.0820 234° Southwest 457 526 38,200 1,000 Climbing FlightAware ADS-B
Wed 10:06:32 PM 41.9310 -76.1680 234° Southwest 461 531 38,700 1,200 Climbing FlightAware ADS-B
Wed 10:07:22 PM 41.8660 -76.2870 234° Southwest 451 519 39,900 867 Climbing FlightAware ADS-B
Wed 10:08:02 PM 41.8210 -76.3700 234° Southwest 446 513 40,000 71 Climbing FlightAware ADS-B
Wed 10:08:47 PM 41.7670 -76.4680 234° Southwest 446 513 40,000  Level FlightAware ADS-B
Wed 10:09:22 PM 41.7160 -76.5650 235° Southwest 452 520 40,000  Level FlightAware ADS-B
Wed 10:10:07 PM 41.6590 -76.6670 233° Southwest 455 524 40,000  Level FlightAware ADS-B
Wed 10:10:52 PM 41.6090 -76.7580 234° Southwest 458 527 40,000  Level FlightAware ADS-B
Wed 10:11:32 PM 41.5600 -76.8470 234° Southwest 459 528 40,000  Level FlightAware ADS-B
Wed 10:12:17 PM 41.5020 -76.9510 233° Southwest 459 528 40,000  Level FlightAware ADS-B
Wed 10:12:57 PM 41.4510 -77.0450 234° Southwest 458 527 40,000  Level FlightAware ADS-B
Wed 10:13:37 PM 41.4000 -77.1350 233° Southwest 457 526 40,000  Level FlightAware ADS-B
Wed 10:14:22 PM 41.3460 -77.2320 233° Southwest 456 525 40,000  Level FlightAware ADS-B
Wed 10:15:02 PM 41.2970 -77.3200 233° Southwest 456 525 40,000  Level FlightAware ADS-B
Wed 10:15:47 PM 41.2410 -77.4180 233° Southwest 453 521 40,000  Level FlightAware ADS-B
Wed 10:16:27 PM 41.1900 -77.5100 234° Southwest 452 520 40,000  Level FlightAware ADS-B
Wed 10:17:12 PM 41.1330 -77.6120 233° Southwest 450 518 40,000  Level FlightAware ADS-B
Wed 10:17:57 PM 41.0750 -77.7130 233° Southwest 448 516 40,000  Level FlightAware ADS-B
Wed 10:18:37 PM 41.0250 -77.8010 233° Southwest 447 514 40,000  Level FlightAware ADS-B
Wed 10:19:17 PM 40.9800 -77.8810 233° Southwest 445 512 40,000  Level FlightAware ADS-B
Wed 10:20:02 PM 40.9190 -77.9880 233° Southwest 445 512 40,000  Level FlightAware ADS-B
Wed 10:20:42 PM 40.8740 -78.0730 235° Southwest 445 512 40,000  Level FlightAware ADS-B
Wed 10:21:22 PM 40.8300 -78.1620 237° Southwest 446 513 40,000  Level FlightAware ADS-B
Wed 10:22:07 PM 40.7770 -78.2690 237° Southwest 447 514 40,000  Level FlightAware ADS-B
Wed 10:23:02 PM 40.7110 -78.3980 236° Southwest 448 516 40,000  Level FlightAware ADS-B
Wed 10:23:57 PM 40.6510 -78.5160 236° Southwest 449 517 40,000  Level FlightAware ADS-B
Wed 10:24:37 PM 40.6070 -78.6020 236° Southwest 449 517 40,000  Level FlightAware ADS-B
Wed 10:25:22 PM 40.5550 -78.7010 235° Southwest 449 517 40,000  Level FlightAware ADS-B
Wed 10:26:02 PM 40.5050 -78.7980 236° Southwest 450 518 40,000  Level FlightAware ADS-B
Wed 10:26:47 PM 40.4520 -78.9020 236° Southwest 450 518 40,000  Level FlightAware ADS-B
Wed 10:27:27 PM 40.4070 -78.9880 236° Southwest 450 518 40,000  Level FlightAware ADS-B
Wed 10:28:07 PM 40.3620 -79.0760 236° Southwest 452 520 40,000  Level FlightAware ADS-B
Wed 10:28:52 PM 40.3070 -79.1830 236° Southwest 453 521 40,000  Level FlightAware ADS-B
Wed 10:29:32 PM 40.2560 -79.2780 235° Southwest 454 522 40,000  Level FlightAware ADS-B
Wed 10:30:17 PM 40.2000 -79.3870 236° Southwest 455 524 40,000  Level FlightAware ADS-B
Wed 10:30:57 PM 40.1530 -79.4750 235° Southwest 456 525 40,000  Level FlightAware ADS-B
Wed 10:31:42 PM 40.1020 -79.5730 236° Southwest 456 525 40,000  Level FlightAware ADS-B
Wed 10:32:22 PM 40.0520 -79.6680 236° Southwest 455 524 40,000  Level FlightAware ADS-B
Wed 10:32:57 PM 40.0090 -79.7470 235° Southwest 455 524 40,000  Level FlightAware ADS-B
Wed 10:33:47 PM 39.9480 -79.8620 235° Southwest 454 522 40,000  Level FlightAware ADS-B
Wed 10:34:27 PM 39.9010 -79.9500 235° Southwest 454 522 40,000  Level FlightAware ADS-B
Wed 10:35:07 PM 39.8530 -80.0400 235° Southwest 454 522 40,000  Level FlightAware ADS-B
Wed 10:35:52 PM 39.8000 -80.1380 235° Southwest 455 524 40,000  Level FlightAware ADS-B
Wed 10:36:37 PM 39.7490 -80.2330 235° Southwest 456 525 40,000  Level FlightAware ADS-B
Wed 10:37:12 PM 39.7030 -80.3180 235° Southwest 457 526 40,000  Level FlightAware ADS-B
Wed 10:38:07 PM 39.6400 -80.4350 235° Southwest 458 527 40,000  Level FlightAware ADS-B
Wed 10:38:47 PM 39.5890 -80.5290 235° Southwest 458 527 40,000  Level FlightAware ADS-B
Wed 10:39:37 PM 39.5210 -80.6520 234° Southwest 456 525 40,000  Level FlightAware ADS-B
Wed 10:40:17 PM 39.4730 -80.7390 234° Southwest 455 524 40,000  Level FlightAware ADS-B
Wed 10:41:02 PM 39.4190 -80.8390 235° Southwest 454 522 40,000  Level FlightAware ADS-B
Wed 10:41:42 PM 39.3680 -80.9320 235° Southwest 453 521 40,000  Level FlightAware ADS-B
Wed 10:42:27 PM 39.3140 -81.0290 234° Southwest 453 521 40,000  Level FlightAware ADS-B
Wed 10:43:02 PM 39.2770 -81.0970 235° Southwest 453 521 40,000  Level FlightAware ADS-B
Wed 10:43:47 PM 39.2170 -81.2040 234° Southwest 452 520 40,000  Level FlightAware ADS-B
Wed 10:44:27 PM 39.1710 -81.2870 234° Southwest 450 518 40,000  Level FlightAware ADS-B
Wed 10:45:12 PM 39.1150 -81.3880 234° Southwest 448 516 40,000  Level FlightAware ADS-B
Wed 10:45:47 PM 39.0840 -81.4690 244° Southwest 445 512 40,000  Level FlightAware ADS-B
Wed 10:46:37 PM 39.0410 -81.5920 246° West 443 510 40,000  Level FlightAware ADS-B
Wed 10:47:17 PM 39.0050 -81.6900 245° Southwest 442 509 40,000  Level FlightAware ADS-B
Wed 10:48:02 PM 38.9660 -81.7970 245° Southwest 441 507 40,000  Level FlightAware ADS-B
Wed 10:48:42 PM 38.9310 -81.8940 245° Southwest 440 506 40,000  Level FlightAware ADS-B
Wed 10:49:27 PM 38.8950 -81.9960 246° West 440 506 40,000  Level FlightAware ADS-B
Wed 10:50:07 PM 38.8530 -82.0870 239° Southwest 444 511 40,000  Level FlightAware ADS-B
Wed 10:50:47 PM 38.8060 -82.1730 235° Southwest 445 512 40,000  Level FlightAware ADS-B
Wed 10:51:32 PM 38.7510 -82.2740 235° Southwest 444 511 40,000  Level FlightAware ADS-B
Wed 10:52:12 PM 38.7050 -82.3560 234° Southwest 444 511 40,000  Level FlightAware ADS-B
Wed 10:52:52 PM 38.6570 -82.4410 234° Southwest 444 511 40,000  Level FlightAware ADS-B
Wed 10:53:37 PM 38.6040 -82.5380 235° Southwest 444 511 40,000  Level FlightAware ADS-B
Wed 10:54:17 PM 38.5570 -82.6210 234° Southwest 444 511 40,000  Level FlightAware ADS-B
Wed 10:55:02 PM 38.5070 -82.7090 234° Southwest 444 511 40,000  Level FlightAware ADS-B
Wed 10:55:42 PM 38.4660 -82.7810 234° Southwest 444 511 40,000  Level FlightAware ADS-B
Wed 10:56:22 PM 38.4250 -82.8530 234° Southwest 444 511 40,000  Level FlightAware ADS-B
Wed 10:57:02 PM 38.3840 -82.9250 234° Southwest 444 511 40,000  Level FlightAware ADS-B
Wed 10:57:35 PM 38.3154 -83.0507 235° Southwest 443 510 40,000  Level FlightAware ADS-B
Wed 10:58:07 PM 38.2766 -83.1184 234° Southwest 444 511 40,000  Level FlightAware ADS-B
Wed 11:02:12 PM 37.9850 -83.6280 234° Southwest 446 513 40,000  Level FlightAware ADS-B
Wed 11:02:52 PM 37.9360 -83.7120 234° Southwest 445 512 40,000  Level FlightAware ADS-B
Wed 11:03:37 PM 37.8860 -83.7960 233° Southwest 445 512 40,000  Level FlightAware ADS-B
Wed 11:04:22 PM 37.8240 -83.9060 235° Southwest 446 513 40,000  Level FlightAware ADS-B
Wed 11:05:02 PM 37.7770 -83.9860 233° Southwest 447 514 40,000  Level FlightAware ADS-B
Wed 11:05:37 PM 37.7320 -84.0640 234° Southwest 447 514 40,000  Level FlightAware ADS-B
Wed 11:06:22 PM 37.6790 -84.1540 233° Southwest 447 514 40,000  Level FlightAware ADS-B
Wed 11:06:44 PM 37.6475 -84.2083 234° Southwest 447 514 40,000  Level FlightAware ADS-B
Wed 11:07:17 PM 37.6071 -84.2754 233° Southwest 447 514 40,000  Level FlightAware ADS-B
Wed 11:08:34 PM 37.5116 -84.4383 234° Southwest 447 514 40,000  Level FlightAware ADS-B
Wed 11:09:08 PM 37.4696 -84.5091 233° Southwest 445 512 40,000  Level FlightAware ADS-B
Wed 11:09:50 PM 37.4183 -84.5959 233° Southwest 444 511 40,000  Level FlightAware ADS-B
Wed 11:10:21 PM 37.3803 -84.6599 233° Southwest 443 510 40,000  Level FlightAware ADS-B
Wed 11:10:51 PM 37.3434 -84.7216 233° Southwest 442 509 40,000  Level FlightAware ADS-B
Wed 11:11:21 PM 37.3065 -84.7833 233° Southwest 441 507 40,000  Level FlightAware ADS-B
Wed 11:11:51 PM 37.2698 -84.8448 233° Southwest 442 509 40,000  Level FlightAware ADS-B
Wed 11:12:21 PM 37.2325 -84.9061 233° Southwest 442 509 40,000  Level FlightAware ADS-B
Wed 11:12:51 PM 37.1953 -84.9677 233° Southwest 442 509 40,000  Level FlightAware ADS-B
Wed 11:13:23 PM 37.1572 -85.0310 233° Southwest 441 507 40,000  Level FlightAware ADS-B
Wed 11:13:53 PM 37.1198 -85.0940 233° Southwest 439 505 40,000  Level FlightAware ADS-B
Wed 11:14:24 PM 37.0823 -85.1549 232° Southwest 439 505 40,000  Level FlightAware ADS-B
Wed 11:14:54 PM 37.0448 -85.2174 233° Southwest 438 504 40,000  Level FlightAware ADS-B
Wed 11:15:31 PM 37.0000 -85.2920 233° Southwest 436 502 40,000  Level FlightAware ADS-B
Wed 11:16:26 PM 36.9332 -85.4022 233° Southwest 435 501 40,000  Level FlightAware ADS-B
Wed 11:17:09 PM 36.8799 -85.4885 232° Southwest 436 502 40,000  Level FlightAware ADS-B
Wed 11:17:43 PM 36.8389 -85.5548 232° Southwest 440 506 40,000  Level FlightAware ADS-B
Wed 11:18:18 PM 36.7956 -85.6256 233° Southwest 440 506 40,000  Level FlightAware ADS-B
Wed 11:18:48 PM 36.7578 -85.6884 233° Southwest 444 511 40,000  Level FlightAware ADS-B
Wed 11:19:18 PM 36.7199 -85.7495 232° Southwest 447 514 40,000  Level FlightAware ADS-B
Wed 11:19:48 PM 36.6820 -85.8110 232° Southwest 448 516 40,000  Level FlightAware ADS-B
Wed 11:20:19 PM 36.6435 -85.8743 233° Southwest 449 517 40,000  Level FlightAware ADS-B
Wed 11:20:52 PM 36.6030 -85.9400 232° Southwest 450 518 40,000  Level FlightAware ADS-B
Wed 11:21:00 PM 36.5910 -85.9584 231° Southwest 450 518 40,000  Level FlightAware ADS-B
Wed 11:21:37 PM 36.5480 -86.0280 232° Southwest 451 519 40,000  Level FlightAware ADS-B
Wed 11:22:17 PM 36.4960 -86.1110 232° Southwest 452 520 40,000  Level FlightAware ADS-B
Wed 11:22:46 PM 36.4557 -86.1764 233° Southwest 453 521 40,000  Level FlightAware ADS-B
Wed 11:23:26 PM 36.4044 -86.2590 232° Southwest 453 521 40,000  Level FlightAware ADS-B
Wed 11:23:56 PM 36.3654 -86.3210 232° Southwest 456 525 40,000  Level FlightAware ADS-B
Wed 11:24:27 PM 36.3257 -86.3830 232° Southwest 456 525 40,000  Level FlightAware ADS-B
Wed 11:25:02 PM 36.2796 -86.4575 233° Southwest 457 526 40,000  Level FlightAware ADS-B
Wed 11:25:33 PM 36.2391 -86.5215 232° Southwest 457 526 40,000  Level FlightAware ADS-B
Wed 11:26:05 PM 36.1980 -86.5876 232° Southwest 457 526 40,000  Level FlightAware ADS-B
Wed 11:27:12 PM 36.1220 -86.7300 237° Southwest 447 514 40,000  Level FlightAware ADS-B
Wed 11:27:26 PM 36.1115 -86.7635 249° West 454 522 40,000  Level FlightAware ADS-B
Wed 11:28:00 PM 36.0857 -86.8461 249° West 445 512 40,000  Level FlightAware ADS-B
Wed 11:28:31 PM 36.0620 -86.9192 248° West 444 511 40,000  Level FlightAware ADS-B
Wed 11:29:02 PM 36.0392 -86.9921 249° West 442 509 40,000  Level FlightAware ADS-B
Wed 11:29:33 PM 36.0163 -87.0625 248° West 440 506 40,000 -98 Level FlightAware ADS-B
Wed 11:30:03 PM 35.9937 -87.1345 249° West 436 502 39,900 -1,000 Descending FlightAware ADS-B
Wed 11:30:33 PM 35.9714 -87.2030 248° West 426 490 39,000 -2,229 Descending FlightAware ADS-B
Wed 11:31:13 PM 35.9430 -87.2916 248° West 412 474 37,300 -2,362 Descending FlightAware ADS-B
Wed 11:32:07 PM 35.9060 -87.4050 248° West 425 489 35,300 -1,468 Descending FlightAware ADS-B
Wed 11:32:47 PM 35.8760 -87.4980 248° West 446 513 35,000 -212 Descending FlightAware ADS-B
Wed 11:33:32 PM 35.8410 -87.6070 248° West 443 510 35,000  Level FlightAware ADS-B
Wed 11:34:12 PM 35.8110 -87.6980 248° West 441 507 35,000  Level FlightAware ADS-B
Wed 11:34:47 PM 35.7840 -87.7790 248° West 439 505 35,000  Level FlightAware ADS-B
Wed 11:35:32 PM 35.7540 -87.8700 248° West 439 505 35,000  Level FlightAware ADS-B
Wed 11:36:22 PM 35.7220 -87.9690 248° West 439 505 35,000  Level FlightAware ADS-B
Wed 11:37:02 PM 35.6960 -88.0480 248° West 439 505 35,000  Level FlightAware ADS-B
Wed 11:37:42 PM 35.6700 -88.1270 248° West 439 505 35,000  Level FlightAware ADS-B
Wed 11:38:22 PM 35.6440 -88.2050 248° West 439 505 35,000  Level FlightAware ADS-B
Wed 11:39:02 PM 35.6180 -88.2840 248° West 439 505 35,000  Level FlightAware ADS-B
Wed 11:39:42 PM 35.5920 -88.3630 248° West 439 505 35,000  Level FlightAware ADS-B
Wed 11:40:32 PM 35.5600 -88.4610 248° West 439 505 35,000  Level FlightAware ADS-B
Wed 11:41:12 PM 35.5340 -88.5400 248° West 439 505 35,000  Level FlightAware ADS-B
Wed 11:41:52 PM 35.5080 -88.6190 248° West 439 505 35,000  Level FlightAware ADS-B
Wed 11:42:32 PM 35.4820 -88.6970 248° West 439 505 35,000  Level FlightAware ADS-B
Wed 11:43:22 PM 35.4500 -88.7960 248° West 439 505 35,000  Level FlightAware ADS-B
Wed 11:44:02 PM 35.4240 -88.8740 248° West 439 505 35,000  Level FlightAware ADS-B
Wed 11:44:42 PM 35.3980 -88.9530 248° West 439 505 35,000 -21,182 Level FlightAware ADS-B
Wed 11:45:08 PM 35.1389 -88.9350 248° West 369 425 11,700 -17,302 Descending Memphis Center
Wed 11:46:08 PM 35.0647 -89.0278 226° Southwest 364 419 10,200 -1,250 Descending Memphis Center
Wed 11:47:08 PM 35.0303 -89.1119 243° Southwest 321 369 9,200 -1,200 Descending Memphis Center
Wed 11:48:08 PM 35.0375 -89.2056 275° West 280 322 7,800 -1,300 Descending Memphis Center
Wed 11:49:08 PM 35.0383 -89.3019 271° West 280 322 6,600 -900 Descending Memphis Center
Wed 11:50:08 PM 35.0411 -89.3933 272° West 275 316 6,000 -300 Descending Memphis Center
Wed 11:51:08 PM 35.0439 -89.4844 272° West 275 316 6,000  Level Memphis Center
Wed 11:52:08 PM 35.0486 -89.5758 274° West 275 316 6,000 -450 Level Memphis Center
Wed 11:53:08 PM 35.0511 -89.6494 272° West 247 284 5,100 -1,000 Descending Memphis Center
Wed 11:54:08 PM 35.0536 -89.7256 272° West 229 264 4,000 -1,050 Descending Memphis Center
Wed 11:55:08 PM 35.0539 -89.7864 270° West 206 237 3,000 -950 Descending Memphis Center
Wed 11:56:08 PM 35.0564 -89.8447 273° West 185 213 2,100 -800 Descending Memphis Center
Wed 11:57:08 PM 35.0586 -89.8903 273° West 155 178 1,400 -680 Descending Memphis Center
Wed 11:57:45 PM 35.0500 -89.9167 248° West 120 138 1,000 -698 Descending KMEM
Wed 11:58:34 PM 35.0500 -89.9500 270° West 125 144 400 -735 Descending KMEM
Thu 12:02:00 AM 35.0333 -89.9667 270° West  Level FlightAware Approximate
Thu 12:09:00 AM 35.0424 -89.9767 270° West  Level Estimated
Thu 12:10:00 AM 35.0424 -89.9767 270° West  Level Estimated
Thu 12:11:00 AM 35.0424 -89.9767 270° West  Level Estimated
Thu 12:12:00 AM 35.0424 -89.9767 270° West  Level Estimated
Thu 12:13:00 AM 35.0424 -89.9767 270° West  Level Estimated
Thu 12:14:00 AM 35.0424 -89.9767 270° West  Level Estimated

Login

Don't have an account? Register now (free) for customized features, flight alerts, and more!